EHLE Airport Information

Runway Information
Runway 05 Length 4101 ft width 99 ft
Elevation 0 ft Threshold 0 ft Heading 48
Runway 23 Length 4101 ft Width 99 ft
Elevation 0 ft Threshold 0 ft Heading 228
Runway 23 Length 1410 ft width 164 ft
Elevation 0 ft Threshold 0 ft Heading 228
Runway 05 Length 1410 ft Width 164 ft
Elevation 0 ft Threshold 0 ft Heading 48
Airport Frequencies
Type AFIS Name Lelystad A Frequency 123.675 MHZ
Type INFO Name Lelystad R Frequency 123.675 MHZ
Type INFO Name Lelystad R Frequency 123.825 MHZ
Airport Navaids
Type VOR-DME Name Pampus Frequency 117800 KHZ
Airport Weather Information & NOTAM
ADDS - METARS form results

(0542 UTC 07 March 2021)
Data provider http://aviationweather.gov/metar/data/
 
METAR text: EHLE 070525Z AUTO 24001KT 9999 OVC033 M02/M03 Q1027
Conditions at: EHLE (LELYSTAD , NL) observed 0525 UTC 07 March 2021
Temperature: -2.0°C (28°F)
Dewpoint: -3.0°C (27°F) [RH = 93%]
Pressure (altimeter): 30.32 inches Hg (1027.0 mb)
Winds: from the WSW (240 degrees) at 1 MPH (1 knots; 0.5 m/s)
Visibility: 6 or more miles (10+ km)
Ceiling: 3300 feet AGL
Clouds: overcast cloud deck at 3300 feet AGL
Weather: no significant weather observed at this time

METAR text: EHLE 070455Z AUTO 24003KT 9999 FEW031 OVC036 M03/M03 Q1027
Conditions at: EHLE (LELYSTAD , NL) observed 0455 UTC 07 March 2021
Temperature: -3.0°C (27°F)
Dewpoint: -3.0°C (27°F) [RH = 100%]
Pressure (altimeter): 30.32 inches Hg (1027.0 mb)
Winds: from the WSW (240 degrees) at 3 MPH (3 knots; 1.5 m/s)
Visibility: 6 or more miles (10+ km)
Ceiling: 3600 feet AGL
Clouds: few clouds at 3100 feet AGL
overcast cloud deck at 3600 feet AGL
Weather: no significant weather observed at this time

Forecast for: EHLE (LELYSTAD , NL)
Text: TAF EHLE 070506Z 0706/0812 VRB03KT 9999 BKN035
Forecast period: 0600 to 0900 UTC 07 March 2021
Forecast type: FROM: standard forecast or significant change
Winds: variable direction winds at 3 MPH (3 knots; 1.5 m/s)
Visibility: 6 or more miles (10+ km)
Ceiling: 3500 feet AGL
Clouds: broken clouds at 3500 feet AGL
Weather: no significant weather forecast for this period
Text: BECMG 0709/0712 29006KT
Forecast period: 0900 UTC 07 March 2021 to 1200 UTC 08 March 2021
Forecast type: BECOMING: Conditions expected to become as follows by 1200 UTC 07 March 2021
Winds: from the WNW (290 degrees) at 7 MPH (6 knots; 3.1 m/s)
Visibility: 6 or more miles (10+ km)
Ceiling: 3500 feet AGL
Clouds: broken clouds at 3500 feet AGL
Weather: no significant weather forecast for this period